Terminal Aerodrome Forecast
Issued by NWS

Home | Current Version | Previous Version | Text Only | Print | Product List | Glossary On
Versions: 1 2 3 4 5 6 7 8 9 10 11 12 13
293
FTUS42 TJSJ 241137
TAFISX
TAF
TISX 241137Z 2412/2512 07008KT P6SM FEW025
     FM241300 10012KT P6SM FEW030
     FM242300 07008KT P6SM FEW025=

USA.gov is the U.S. government's official web portal to all federal, state and local government web resources and services.